sensor_id;sensor_type;location;lat;lon;timestamp;temperature;humidity
54272;DHT22;40184;53.362;5.216;2023-05-16T00:00:33;9.60;99.90
54272;DHT22;40184;53.362;5.216;2023-05-16T00:03:00;9.50;99.90
54272;DHT22;40184;53.362;5.216;2023-05-16T00:05:25;9.50;99.90
54272;DHT22;40184;53.362;5.216;2023-05-16T00:07:51;9.50;99.90
54272;DHT22;40184;53.362;5.216;2023-05-16T00:10:16;9.60;99.90
54272;DHT22;40184;53.362;5.216;2023-05-16T00:12:42;9.60;99.90
54272;DHT22;40184;53.362;5.216;2023-05-16T00:15:09;9.60;99.90
54272;DHT22;40184;53.362;5.216;2023-05-16T00:17:37;9.60;99.90
54272;DHT22;40184;53.362;5.216;2023-05-16T00:20:02;9.60;99.90
54272;DHT22;40184;53.362;5.216;2023-05-16T00:22:35;9.50;99.90
54272;DHT22;40184;53.362;5.216;2023-05-16T00:25:01;9.50;99.90
54272;DHT22;40184;53.362;5.216;2023-05-16T00:27:27;9.50;99.90
54272;DHT22;40184;53.362;5.216;2023-05-16T00:29:52;9.50;99.90
54272;DHT22;40184;53.362;5.216;2023-05-16T00:32:18;9.50;99.90
54272;DHT22;40184;53.362;5.216;2023-05-16T00:34:43;9.50;99.90
54272;DHT22;40184;53.362;5.216;2023-05-16T00:37:09;9.50;99.90
54272;DHT22;40184;53.362;5.216;2023-05-16T00:39:35;9.50;99.90
54272;DHT22;40184;53.362;5.216;2023-05-16T00:42:00;9.50;99.90
54272;DHT22;40184;53.362;5.216;2023-05-16T00:44:26;9.50;99.90
54272;DHT22;40184;53.362;5.216;2023-05-16T00:46:53;9.40;99.90
54272;DHT22;40184;53.362;5.216;2023-05-16T00:49:18;9.40;99.90
54272;DHT22;40184;53.362;5.216;2023-05-16T00:51:44;9.40;99.90
54272;DHT22;40184;53.362;5.216;2023-05-16T00:54:09;9.40;99.90
54272;DHT22;40184;53.362;5.216;2023-05-16T00:56:36;9.30;99.90
54272;DHT22;40184;53.362;5.216;2023-05-16T00:59:01;9.30;99.90
54272;DHT22;40184;53.362;5.216;2023-05-16T01:01:28;9.40;99.90
54272;DHT22;40184;53.362;5.216;2023-05-16T01:03:53;9.40;99.90
54272;DHT22;40184;53.362;5.216;2023-05-16T01:06:19;9.30;99.90
54272;DHT22;40184;53.362;5.216;2023-05-16T01:08:45;9.30;99.90
54272;DHT22;40184;53.362;5.216;2023-05-16T01:16:37;9.40;99.90
54272;DHT22;40184;53.362;5.216;2023-05-16T01:21:47;9.40;99.90
54272;DHT22;40184;53.362;5.216;2023-05-16T01:24:19;9.40;99.90
54272;DHT22;40184;53.362;5.216;2023-05-16T01:26:46;9.40;99.90
54272;DHT22;40184;53.362;5.216;2023-05-16T01:29:13;9.40;99.90
54272;DHT22;40184;53.362;5.216;2023-05-16T01:31:40;9.40;99.90
54272;DHT22;40184;53.362;5.216;2023-05-16T01:34:05;9.40;99.90
54272;DHT22;40184;53.362;5.216;2023-05-16T01:36:45;9.40;99.90
54272;DHT22;40184;53.362;5.216;2023-05-16T01:39:19;9.40;99.90
54272;DHT22;40184;53.362;5.216;2023-05-16T01:46:47;9.40;99.90
54272;DHT22;40184;53.362;5.216;2023-05-16T01:49:15;9.40;99.90
54272;DHT22;40184;53.362;5.216;2023-05-16T01:51:59;9.40;99.90
54272;DHT22;40184;53.362;5.216;2023-05-16T01:54:25;9.30;99.90
54272;DHT22;40184;53.362;5.216;2023-05-16T01:56:53;9.30;99.90
54272;DHT22;40184;53.362;5.216;2023-05-16T01:59:20;9.30;99.90
54272;DHT22;40184;53.362;5.216;2023-05-16T02:01:46;9.30;99.90
54272;DHT22;40184;53.362;5.216;2023-05-16T02:04:12;9.30;99.90
54272;DHT22;40184;53.362;5.216;2023-05-16T02:06:39;9.30;99.90
54272;DHT22;40184;53.362;5.216;2023-05-16T02:09:05;9.30;99.90
54272;DHT22;40184;53.362;5.216;2023-05-16T02:11:31;9.40;99.90
54272;DHT22;40184;53.362;5.216;2023-05-16T02:13:56;9.40;99.90
54272;DHT22;40184;53.362;5.216;2023-05-16T02:16:22;9.40;99.90
54272;DHT22;40184;53.362;5.216;2023-05-16T02:18:47;9.30;99.90
54272;DHT22;40184;53.362;5.216;2023-05-16T02:21:13;9.40;99.90
54272;DHT22;40184;53.362;5.216;2023-05-16T02:23:39;9.40;99.90
54272;DHT22;40184;53.362;5.216;2023-05-16T02:26:04;9.40;99.90
54272;DHT22;40184;53.362;5.216;2023-05-16T02:28:30;9.40;99.90
54272;DHT22;40184;53.362;5.216;2023-05-16T02:30:59;9.40;99.90
54272;DHT22;40184;53.362;5.216;2023-05-16T02:33:25;9.40;99.90
54272;DHT22;40184;53.362;5.216;2023-05-16T02:35:51;9.40;99.90
54272;DHT22;40184;53.362;5.216;2023-05-16T02:38:17;9.40;99.90
54272;DHT22;40184;53.362;5.216;2023-05-16T02:40:48;9.40;99.90
54272;DHT22;40184;53.362;5.216;2023-05-16T02:43:14;9.40;99.90
54272;DHT22;40184;53.362;5.216;2023-05-16T02:45:40;9.40;99.90
54272;DHT22;40184;53.362;5.216;2023-05-16T02:48:05;9.40;99.90
54272;DHT22;40184;53.362;5.216;2023-05-16T02:50:31;9.30;99.90
54272;DHT22;40184;53.362;5.216;2023-05-16T02:52:57;9.40;99.90
54272;DHT22;40184;53.362;5.216;2023-05-16T02:55:24;9.40;99.90
54272;DHT22;40184;53.362;5.216;2023-05-16T02:57:50;9.40;99.90
54272;DHT22;40184;53.362;5.216;2023-05-16T03:00:16;9.40;99.90
54272;DHT22;40184;53.362;5.216;2023-05-16T03:02:42;9.40;99.90
54272;DHT22;40184;53.362;5.216;2023-05-16T03:05:08;9.40;99.90
54272;DHT22;40184;53.362;5.216;2023-05-16T03:07:34;9.40;99.90
54272;DHT22;40184;53.362;5.216;2023-05-16T03:09:59;9.40;99.90
54272;DHT22;40184;53.362;5.216;2023-05-16T03:12:25;9.50;99.90
54272;DHT22;40184;53.362;5.216;2023-05-16T03:14:50;9.50;99.90
54272;DHT22;40184;53.362;5.216;2023-05-16T03:17:16;9.50;99.90
54272;DHT22;40184;53.362;5.216;2023-05-16T03:19:42;9.50;99.90
54272;DHT22;40184;53.362;5.216;2023-05-16T03:22:07;9.60;99.90
54272;DHT22;40184;53.362;5.216;2023-05-16T03:24:33;9.60;99.90
54272;DHT22;40184;53.362;5.216;2023-05-16T03:26:58;9.60;99.90
54272;DHT22;40184;53.362;5.216;2023-05-16T03:29:24;9.60;99.90
54272;DHT22;40184;53.362;5.216;2023-05-16T03:31:51;9.70;99.90
54272;DHT22;40184;53.362;5.216;2023-05-16T03:34:17;9.60;99.90
54272;DHT22;40184;53.362;5.216;2023-05-16T03:36:42;9.60;99.90
54272;DHT22;40184;53.362;5.216;2023-05-16T03:39:08;9.60;99.90
54272;DHT22;40184;53.362;5.216;2023-05-16T03:41:34;9.70;99.90
54272;DHT22;40184;53.362;5.216;2023-05-16T03:43:59;9.70;99.90
54272;DHT22;40184;53.362;5.216;2023-05-16T03:46:25;9.70;99.90
54272;DHT22;40184;53.362;5.216;2023-05-16T03:48:51;9.70;99.90
54272;DHT22;40184;53.362;5.216;2023-05-16T03:51:16;9.60;99.90
54272;DHT22;40184;53.362;5.216;2023-05-16T03:53:42;9.60;99.90
54272;DHT22;40184;53.362;5.216;2023-05-16T03:56:07;9.50;99.90
54272;DHT22;40184;53.362;5.216;2023-05-16T03:58:33;9.40;99.90
54272;DHT22;40184;53.362;5.216;2023-05-16T04:00:58;9.40;99.90
54272;DHT22;40184;53.362;5.216;2023-05-16T04:03:24;9.40;99.90
54272;DHT22;40184;53.362;5.216;2023-05-16T04:05:53;9.40;99.90
54272;DHT22;40184;53.362;5.216;2023-05-16T04:08:19;9.40;99.90
54272;DHT22;40184;53.362;5.216;2023-05-16T04:10:45;9.50;99.90
54272;DHT22;40184;53.362;5.216;2023-05-16T04:13:10;9.50;99.90
54272;DHT22;40184;53.362;5.216;2023-05-16T04:15:36;9.50;99.90
54272;DHT22;40184;53.362;5.216;2023-05-16T04:18:01;9.50;99.90
54272;DHT22;40184;53.362;5.216;2023-05-16T04:20:27;9.50;99.90
54272;DHT22;40184;53.362;5.216;2023-05-16T04:22:53;9.50;99.90
54272;DHT22;40184;53.362;5.216;2023-05-16T04:25:18;9.40;99.90
54272;DHT22;40184;53.362;5.216;2023-05-16T04:27:44;9.50;99.90
54272;DHT22;40184;53.362;5.216;2023-05-16T04:30:10;9.60;99.90
54272;DHT22;40184;53.362;5.216;2023-05-16T04:32:36;9.70;99.90
54272;DHT22;40184;53.362;5.216;2023-05-16T04:35:02;9.80;99.90
54272;DHT22;40184;53.362;5.216;2023-05-16T04:37:27;9.70;99.90
54272;DHT22;40184;53.362;5.216;2023-05-16T04:39:53;9.60;99.90
54272;DHT22;40184;53.362;5.216;2023-05-16T04:42:21;9.60;99.90
54272;DHT22;40184;53.362;5.216;2023-05-16T04:44:47;9.70;99.90
54272;DHT22;40184;53.362;5.216;2023-05-16T04:47:12;9.70;99.90
54272;DHT22;40184;53.362;5.216;2023-05-16T04:49:38;9.90;99.90
54272;DHT22;40184;53.362;5.216;2023-05-16T04:52:05;9.90;99.90
54272;DHT22;40184;53.362;5.216;2023-05-16T04:54:30;9.90;99.90
54272;DHT22;40184;53.362;5.216;2023-05-16T04:56:56;9.90;99.90
54272;DHT22;40184;53.362;5.216;2023-05-16T04:59:22;9.80;99.90
54272;DHT22;40184;53.362;5.216;2023-05-16T05:01:47;9.70;99.90
54272;DHT22;40184;53.362;5.216;2023-05-16T05:04:13;9.70;99.90
54272;DHT22;40184;53.362;5.216;2023-05-16T05:06:39;9.70;99.90
54272;DHT22;40184;53.362;5.216;2023-05-16T05:09:05;9.70;99.90
54272;DHT22;40184;53.362;5.216;2023-05-16T05:11:31;9.70;99.90
54272;DHT22;40184;53.362;5.216;2023-05-16T05:13:56;9.80;99.90
54272;DHT22;40184;53.362;5.216;2023-05-16T05:16:22;9.80;99.90
54272;DHT22;40184;53.362;5.216;2023-05-16T05:18:48;9.90;99.90
54272;DHT22;40184;53.362;5.216;2023-05-16T05:21:13;9.90;99.90
54272;DHT22;40184;53.362;5.216;2023-05-16T05:23:39;10.00;99.90
54272;DHT22;40184;53.362;5.216;2023-05-16T05:26:04;10.10;99.90
54272;DHT22;40184;53.362;5.216;2023-05-16T05:28:30;10.10;99.90
54272;DHT22;40184;53.362;5.216;2023-05-16T05:30:55;10.10;99.90
54272;DHT22;40184;53.362;5.216;2023-05-16T05:33:25;10.00;99.90
54272;DHT22;40184;53.362;5.216;2023-05-16T05:35:50;10.00;99.90
54272;DHT22;40184;53.362;5.216;2023-05-16T05:38:18;10.00;99.90
54272;DHT22;40184;53.362;5.216;2023-05-16T05:40:44;10.20;99.90
54272;DHT22;40184;53.362;5.216;2023-05-16T05:43:09;10.20;99.90
54272;DHT22;40184;53.362;5.216;2023-05-16T05:45:35;10.20;99.90
54272;DHT22;40184;53.362;5.216;2023-05-16T05:48:01;10.20;99.90
54272;DHT22;40184;53.362;5.216;2023-05-16T05:50:27;10.30;99.90
54272;DHT22;40184;53.362;5.216;2023-05-16T05:52:53;10.40;99.90
54272;DHT22;40184;53.362;5.216;2023-05-16T05:55:19;10.50;99.90
54272;DHT22;40184;53.362;5.216;2023-05-16T05:57:45;10.40;99.90
54272;DHT22;40184;53.362;5.216;2023-05-16T06:00:10;10.50;99.90
54272;DHT22;40184;53.362;5.216;2023-05-16T06:02:36;10.50;99.90
54272;DHT22;40184;53.362;5.216;2023-05-16T06:05:02;10.50;99.90
54272;DHT22;40184;53.362;5.216;2023-05-16T06:07:27;10.60;99.90
54272;DHT22;40184;53.362;5.216;2023-05-16T06:09:53;10.70;99.90
54272;DHT22;40184;53.362;5.216;2023-05-16T06:12:19;10.80;99.90
54272;DHT22;40184;53.362;5.216;2023-05-16T06:14:44;10.90;99.90
54272;DHT22;40184;53.362;5.216;2023-05-16T06:17:10;10.90;99.90
54272;DHT22;40184;53.362;5.216;2023-05-16T06:19:35;10.80;99.90
54272;DHT22;40184;53.362;5.216;2023-05-16T06:22:01;10.70;99.90
54272;DHT22;40184;53.362;5.216;2023-05-16T06:24:26;10.70;99.90
54272;DHT22;40184;53.362;5.216;2023-05-16T06:26:54;10.60;99.90
54272;DHT22;40184;53.362;5.216;2023-05-16T06:29:20;10.60;99.90
54272;DHT22;40184;53.362;5.216;2023-05-16T06:31:45;10.70;99.90
54272;DHT22;40184;53.362;5.216;2023-05-16T06:34:11;10.80;99.90
54272;DHT22;40184;53.362;5.216;2023-05-16T06:36:37;10.80;99.90
54272;DHT22;40184;53.362;5.216;2023-05-16T06:39:02;10.80;99.90
54272;DHT22;40184;53.362;5.216;2023-05-16T06:41:29;10.80;99.90
54272;DHT22;40184;53.362;5.216;2023-05-16T06:43:55;11.00;99.90
54272;DHT22;40184;53.362;5.216;2023-05-16T06:46:20;11.20;99.90
54272;DHT22;40184;53.362;5.216;2023-05-16T06:48:46;11.30;99.90
54272;DHT22;40184;53.362;5.216;2023-05-16T06:51:12;11.40;99.90
54272;DHT22;40184;53.362;5.216;2023-05-16T06:53:37;11.50;99.90
54272;DHT22;40184;53.362;5.216;2023-05-16T06:56:03;11.60;99.90
54272;DHT22;40184;53.362;5.216;2023-05-16T06:58:28;11.70;99.90
54272;DHT22;40184;53.362;5.216;2023-05-16T07:00:54;11.90;99.90
54272;DHT22;40184;53.362;5.216;2023-05-16T07:03:20;12.00;99.90
54272;DHT22;40184;53.362;5.216;2023-05-16T07:05:45;12.10;99.90
54272;DHT22;40184;53.362;5.216;2023-05-16T07:08:11;12.00;99.90
54272;DHT22;40184;53.362;5.216;2023-05-16T07:10:37;12.20;99.90
54272;DHT22;40184;53.362;5.216;2023-05-16T07:13:03;12.20;99.90
54272;DHT22;40184;53.362;5.216;2023-05-16T07:15:29;12.30;99.90
54272;DHT22;40184;53.362;5.216;2023-05-16T07:17:55;12.10;99.90
54272;DHT22;40184;53.362;5.216;2023-05-16T07:20:21;12.30;99.90
54272;DHT22;40184;53.362;5.216;2023-05-16T07:22:47;12.20;99.90
54272;DHT22;40184;53.362;5.216;2023-05-16T07:25:12;12.20;99.90
54272;DHT22;40184;53.362;5.216;2023-05-16T07:27:40;12.40;99.90
54272;DHT22;40184;53.362;5.216;2023-05-16T07:30:12;12.40;99.90
54272;DHT22;40184;53.362;5.216;2023-05-16T07:32:38;12.30;99.90
54272;DHT22;40184;53.362;5.216;2023-05-16T07:35:04;12.50;99.90
54272;DHT22;40184;53.362;5.216;2023-05-16T07:37:30;12.50;99.90
54272;DHT22;40184;53.362;5.216;2023-05-16T07:39:55;12.40;99.90
54272;DHT22;40184;53.362;5.216;2023-05-16T07:42:21;12.40;99.90
54272;DHT22;40184;53.362;5.216;2023-05-16T07:44:46;12.30;99.90
54272;DHT22;40184;53.362;5.216;2023-05-16T07:47:12;12.20;99.90
54272;DHT22;40184;53.362;5.216;2023-05-16T07:49:37;12.00;99.90
54272;DHT22;40184;53.362;5.216;2023-05-16T07:52:03;12.20;99.90
54272;DHT22;40184;53.362;5.216;2023-05-16T07:54:29;12.30;99.90
54272;DHT22;40184;53.362;5.216;2023-05-16T07:56:55;12.60;99.90
54272;DHT22;40184;53.362;5.216;2023-05-16T07:59:21;12.80;99.90
54272;DHT22;40184;53.362;5.216;2023-05-16T08:01:47;13.00;99.90
54272;DHT22;40184;53.362;5.216;2023-05-16T08:04:12;13.10;99.90
54272;DHT22;40184;53.362;5.216;2023-05-16T08:06:38;13.10;99.90
54272;DHT22;40184;53.362;5.216;2023-05-16T08:09:04;13.20;99.90
54272;DHT22;40184;53.362;5.216;2023-05-16T08:11:29;13.30;99.90
54272;DHT22;40184;53.362;5.216;2023-05-16T08:13:55;13.40;99.90
54272;DHT22;40184;53.362;5.216;2023-05-16T08:16:20;13.50;99.90
54272;DHT22;40184;53.362;5.216;2023-05-16T08:18:46;13.40;99.90
54272;DHT22;40184;53.362;5.216;2023-05-16T08:21:11;13.50;99.90
54272;DHT22;40184;53.362;5.216;2023-05-16T08:23:39;13.50;99.90
54272;DHT22;40184;53.362;5.216;2023-05-16T08:26:05;13.40;99.90
54272;DHT22;40184;53.362;5.216;2023-05-16T08:28:30;13.40;99.90
54272;DHT22;40184;53.362;5.216;2023-05-16T08:30:56;13.50;99.90
54272;DHT22;40184;53.362;5.216;2023-05-16T08:33:21;13.50;99.90
54272;DHT22;40184;53.362;5.216;2023-05-16T08:35:49;13.70;99.90
54272;DHT22;40184;53.362;5.216;2023-05-16T08:38:14;13.60;99.90
54272;DHT22;40184;53.362;5.216;2023-05-16T08:40:41;13.80;99.90
54272;DHT22;40184;53.362;5.216;2023-05-16T08:43:07;13.80;99.90
54272;DHT22;40184;53.362;5.216;2023-05-16T08:45:32;13.70;99.90
54272;DHT22;40184;53.362;5.216;2023-05-16T08:47:59;13.70;99.90
54272;DHT22;40184;53.362;5.216;2023-05-16T08:50:25;13.70;99.90
54272;DHT22;40184;53.362;5.216;2023-05-16T08:52:53;14.00;99.90
54272;DHT22;40184;53.362;5.216;2023-05-16T08:55:19;14.10;99.90
54272;DHT22;40184;53.362;5.216;2023-05-16T08:57:47;14.00;99.90
54272;DHT22;40184;53.362;5.216;2023-05-16T09:00:13;14.00;99.90
54272;DHT22;40184;53.362;5.216;2023-05-16T09:02:40;14.20;99.90
54272;DHT22;40184;53.362;5.216;2023-05-16T09:05:07;14.20;99.90
54272;DHT22;40184;53.362;5.216;2023-05-16T09:07:33;14.10;99.90
54272;DHT22;40184;53.362;5.216;2023-05-16T09:09:59;14.20;99.90
54272;DHT22;40184;53.362;5.216;2023-05-16T09:12:24;14.40;99.90
54272;DHT22;40184;53.362;5.216;2023-05-16T09:14:50;14.30;99.90
54272;DHT22;40184;53.362;5.216;2023-05-16T09:17:16;14.20;99.90
54272;DHT22;40184;53.362;5.216;2023-05-16T09:19:42;14.00;99.90
54272;DHT22;40184;53.362;5.216;2023-05-16T09:22:08;14.10;99.90
54272;DHT22;40184;53.362;5.216;2023-05-16T09:24:37;14.20;99.90
54272;DHT22;40184;53.362;5.216;2023-05-16T09:27:07;14.50;99.90
54272;DHT22;40184;53.362;5.216;2023-05-16T09:29:33;14.40;99.90
54272;DHT22;40184;53.362;5.216;2023-05-16T09:32:11;14.20;99.90
54272;DHT22;40184;53.362;5.216;2023-05-16T09:34:44;14.10;99.90
54272;DHT22;40184;53.362;5.216;2023-05-16T09:37:10;13.90;99.90
54272;DHT22;40184;53.362;5.216;2023-05-16T09:39:45;13.80;99.90
54272;DHT22;40184;53.362;5.216;2023-05-16T09:42:12;13.60;99.90
54272;DHT22;40184;53.362;5.216;2023-05-16T09:44:38;13.40;99.90
54272;DHT22;40184;53.362;5.216;2023-05-16T09:47:03;13.30;99.90
54272;DHT22;40184;53.362;5.216;2023-05-16T09:49:29;13.20;99.90
54272;DHT22;40184;53.362;5.216;2023-05-16T09:51:55;13.10;99.90
54272;DHT22;40184;53.362;5.216;2023-05-16T09:54:30;12.80;99.90
54272;DHT22;40184;53.362;5.216;2023-05-16T09:56:57;12.60;99.90
54272;DHT22;40184;53.362;5.216;2023-05-16T09:59:22;12.30;99.90
54272;DHT22;40184;53.362;5.216;2023-05-16T10:01:48;12.20;99.90
54272;DHT22;40184;53.362;5.216;2023-05-16T10:07:33;12.40;99.90
54272;DHT22;40184;53.362;5.216;2023-05-16T10:09:59;12.60;99.90
54272;DHT22;40184;53.362;5.216;2023-05-16T10:12:26;12.30;99.90
54272;DHT22;40184;53.362;5.216;2023-05-16T10:14:53;12.10;99.90
54272;DHT22;40184;53.362;5.216;2023-05-16T10:17:19;12.00;99.90
54272;DHT22;40184;53.362;5.216;2023-05-16T10:19:45;11.80;99.90
54272;DHT22;40184;53.362;5.216;2023-05-16T10:22:11;11.60;99.90
54272;DHT22;40184;53.362;5.216;2023-05-16T10:24:40;11.80;99.90
54272;DHT22;40184;53.362;5.216;2023-05-16T10:27:08;12.10;99.90
54272;DHT22;40184;53.362;5.216;2023-05-16T10:29:34;12.30;99.90
54272;DHT22;40184;53.362;5.216;2023-05-16T10:32:00;12.60;99.90
54272;DHT22;40184;53.362;5.216;2023-05-16T10:34:25;12.80;99.90
54272;DHT22;40184;53.362;5.216;2023-05-16T10:36:51;12.80;99.90
54272;DHT22;40184;53.362;5.216;2023-05-16T10:39:17;13.00;99.90
54272;DHT22;40184;53.362;5.216;2023-05-16T10:41:43;13.10;99.90
54272;DHT22;40184;53.362;5.216;2023-05-16T10:44:12;13.30;99.90
54272;DHT22;40184;53.362;5.216;2023-05-16T10:46:39;13.50;99.90
54272;DHT22;40184;53.362;5.216;2023-05-16T10:51:46;13.50;99.90
54272;DHT22;40184;53.362;5.216;2023-05-16T10:54:13;13.70;99.90
54272;DHT22;40184;53.362;5.216;2023-05-16T10:56:40;13.60;99.90
54272;DHT22;40184;53.362;5.216;2023-05-16T10:59:21;13.50;99.90
54272;DHT22;40184;53.362;5.216;2023-05-16T11:01:50;13.60;99.90
54272;DHT22;40184;53.362;5.216;2023-05-16T11:04:16;13.70;99.90
54272;DHT22;40184;53.362;5.216;2023-05-16T11:09:16;13.60;99.90
54272;DHT22;40184;53.362;5.216;2023-05-16T11:11:43;13.60;99.90
54272;DHT22;40184;53.362;5.216;2023-05-16T11:19:33;13.90;99.90
54272;DHT22;40184;53.362;5.216;2023-05-16T11:22:12;13.80;99.90
54272;DHT22;40184;53.362;5.216;2023-05-16T11:25:00;13.80;99.90
54272;DHT22;40184;53.362;5.216;2023-05-16T11:27:27;13.80;99.90
54272;DHT22;40184;53.362;5.216;2023-05-16T11:29:53;13.80;99.90
54272;DHT22;40184;53.362;5.216;2023-05-16T11:32:20;13.90;99.90
54272;DHT22;40184;53.362;5.216;2023-05-16T11:34:49;13.90;99.90
54272;DHT22;40184;53.362;5.216;2023-05-16T11:37:15;14.00;99.90
54272;DHT22;40184;53.362;5.216;2023-05-16T11:39:41;14.20;99.90
54272;DHT22;40184;53.362;5.216;2023-05-16T11:42:07;14.30;99.90
54272;DHT22;40184;53.362;5.216;2023-05-16T11:44:33;14.30;99.90
54272;DHT22;40184;53.362;5.216;2023-05-16T11:46:59;14.50;99.90
54272;DHT22;40184;53.362;5.216;2023-05-16T11:49:26;14.50;99.90
54272;DHT22;40184;53.362;5.216;2023-05-16T11:51:55;14.50;99.90
54272;DHT22;40184;53.362;5.216;2023-05-16T11:54:22;14.30;99.90
54272;DHT22;40184;53.362;5.216;2023-05-16T11:56:48;14.30;99.90
54272;DHT22;40184;53.362;5.216;2023-05-16T11:59:14;14.10;99.90
54272;DHT22;40184;53.362;5.216;2023-05-16T12:01:41;14.30;99.90
54272;DHT22;40184;53.362;5.216;2023-05-16T12:04:10;14.40;99.90
54272;DHT22;40184;53.362;5.216;2023-05-16T12:06:36;14.50;99.90
54272;DHT22;40184;53.362;5.216;2023-05-16T12:09:05;14.40;99.90
54272;DHT22;40184;53.362;5.216;2023-05-16T12:11:41;14.60;99.90
54272;DHT22;40184;53.362;5.216;2023-05-16T12:14:08;14.70;99.90
54272;DHT22;40184;53.362;5.216;2023-05-16T12:16:34;14.80;99.90
54272;DHT22;40184;53.362;5.216;2023-05-16T12:19:06;14.70;99.90
54272;DHT22;40184;53.362;5.216;2023-05-16T12:21:32;14.70;99.90
54272;DHT22;40184;53.362;5.216;2023-05-16T12:23:58;14.80;99.90
54272;DHT22;40184;53.362;5.216;2023-05-16T12:26:28;14.70;99.90
54272;DHT22;40184;53.362;5.216;2023-05-16T12:28:58;14.70;99.90
54272;DHT22;40184;53.362;5.216;2023-05-16T12:31:27;14.80;99.90
54272;DHT22;40184;53.362;5.216;2023-05-16T12:33:54;14.90;99.90
54272;DHT22;40184;53.362;5.216;2023-05-16T12:36:20;15.10;99.90
54272;DHT22;40184;53.362;5.216;2023-05-16T12:38:46;15.10;99.90
54272;DHT22;40184;53.362;5.216;2023-05-16T12:41:21;15.10;99.90
54272;DHT22;40184;53.362;5.216;2023-05-16T12:43:47;15.00;99.90
54272;DHT22;40184;53.362;5.216;2023-05-16T12:46:13;15.10;99.90
54272;DHT22;40184;53.362;5.216;2023-05-16T12:48:39;15.30;99.90
54272;DHT22;40184;53.362;5.216;2023-05-16T12:51:11;15.30;99.90
54272;DHT22;40184;53.362;5.216;2023-05-16T12:53:45;15.20;99.90
54272;DHT22;40184;53.362;5.216;2023-05-16T12:56:11;15.10;99.90
54272;DHT22;40184;53.362;5.216;2023-05-16T12:58:38;15.00;99.90
54272;DHT22;40184;53.362;5.216;2023-05-16T13:01:04;15.00;99.90
54272;DHT22;40184;53.362;5.216;2023-05-16T13:03:30;15.10;99.90
54272;DHT22;40184;53.362;5.216;2023-05-16T13:05:57;15.00;99.90
54272;DHT22;40184;53.362;5.216;2023-05-16T13:08:22;15.00;99.90
54272;DHT22;40184;53.362;5.216;2023-05-16T13:10:48;14.90;99.90
54272;DHT22;40184;53.362;5.216;2023-05-16T13:13:13;15.00;99.90
54272;DHT22;40184;53.362;5.216;2023-05-16T13:15:39;15.20;99.90
54272;DHT22;40184;53.362;5.216;2023-05-16T13:18:06;15.30;99.90
54272;DHT22;40184;53.362;5.216;2023-05-16T13:20:32;15.40;99.90
54272;DHT22;40184;53.362;5.216;2023-05-16T13:22:57;15.40;99.90
54272;DHT22;40184;53.362;5.216;2023-05-16T13:25:23;15.40;99.90
54272;DHT22;40184;53.362;5.216;2023-05-16T13:27:49;15.20;99.90
54272;DHT22;40184;53.362;5.216;2023-05-16T13:30:14;15.00;99.90
54272;DHT22;40184;53.362;5.216;2023-05-16T13:32:40;15.00;99.90
54272;DHT22;40184;53.362;5.216;2023-05-16T13:35:06;14.90;99.90
54272;DHT22;40184;53.362;5.216;2023-05-16T13:37:32;14.90;99.90
54272;DHT22;40184;53.362;5.216;2023-05-16T13:39:58;14.80;99.90
54272;DHT22;40184;53.362;5.216;2023-05-16T13:42:23;14.80;99.90
54272;DHT22;40184;53.362;5.216;2023-05-16T13:44:49;14.70;99.90
54272;DHT22;40184;53.362;5.216;2023-05-16T13:47:15;14.70;99.90
54272;DHT22;40184;53.362;5.216;2023-05-16T13:49:40;14.50;99.90
54272;DHT22;40184;53.362;5.216;2023-05-16T13:52:06;14.30;99.90
54272;DHT22;40184;53.362;5.216;2023-05-16T13:54:31;14.20;99.90
54272;DHT22;40184;53.362;5.216;2023-05-16T13:56:57;14.10;99.90
54272;DHT22;40184;53.362;5.216;2023-05-16T13:59:23;14.00;99.90
54272;DHT22;40184;53.362;5.216;2023-05-16T14:01:49;13.90;99.90
54272;DHT22;40184;53.362;5.216;2023-05-16T14:04:15;13.70;99.90
54272;DHT22;40184;53.362;5.216;2023-05-16T14:06:40;13.70;99.90
54272;DHT22;40184;53.362;5.216;2023-05-16T14:09:06;13.80;99.90
54272;DHT22;40184;53.362;5.216;2023-05-16T14:11:32;13.90;99.90
54272;DHT22;40184;53.362;5.216;2023-05-16T14:13:58;13.90;99.90
54272;DHT22;40184;53.362;5.216;2023-05-16T14:16:24;14.00;99.90
54272;DHT22;40184;53.362;5.216;2023-05-16T14:18:50;14.00;99.90
54272;DHT22;40184;53.362;5.216;2023-05-16T14:21:15;14.20;99.90
54272;DHT22;40184;53.362;5.216;2023-05-16T14:23:41;14.40;99.90
54272;DHT22;40184;53.362;5.216;2023-05-16T14:26:06;14.60;99.90
54272;DHT22;40184;53.362;5.216;2023-05-16T14:28:32;14.70;99.90
54272;DHT22;40184;53.362;5.216;2023-05-16T14:30:58;14.60;99.90
54272;DHT22;40184;53.362;5.216;2023-05-16T14:33:25;14.50;99.90
54272;DHT22;40184;53.362;5.216;2023-05-16T14:35:50;14.40;99.90
54272;DHT22;40184;53.362;5.216;2023-05-16T14:38:16;14.20;99.90
54272;DHT22;40184;53.362;5.216;2023-05-16T14:40:42;14.00;99.90
54272;DHT22;40184;53.362;5.216;2023-05-16T14:43:07;13.90;99.90
54272;DHT22;40184;53.362;5.216;2023-05-16T14:45:33;13.90;99.90
54272;DHT22;40184;53.362;5.216;2023-05-16T14:47:58;14.10;99.90
54272;DHT22;40184;53.362;5.216;2023-05-16T14:50:24;14.20;99.90
54272;DHT22;40184;53.362;5.216;2023-05-16T14:52:50;14.20;99.90
54272;DHT22;40184;53.362;5.216;2023-05-16T14:55:16;14.30;99.90
54272;DHT22;40184;53.362;5.216;2023-05-16T14:57:42;14.50;99.90
54272;DHT22;40184;53.362;5.216;2023-05-16T15:00:08;14.70;99.90
54272;DHT22;40184;53.362;5.216;2023-05-16T15:02:35;15.20;99.90
54272;DHT22;40184;53.362;5.216;2023-05-16T15:05:00;15.80;99.90
54272;DHT22;40184;53.362;5.216;2023-05-16T15:07:26;16.10;99.90
54272;DHT22;40184;53.362;5.216;2023-05-16T15:09:51;16.20;99.90
54272;DHT22;40184;53.362;5.216;2023-05-16T15:12:17;16.10;99.90
54272;DHT22;40184;53.362;5.216;2023-05-16T15:14:42;16.50;99.90
54272;DHT22;40184;53.362;5.216;2023-05-16T15:17:08;16.90;99.90
54272;DHT22;40184;53.362;5.216;2023-05-16T15:19:33;17.10;99.90
54272;DHT22;40184;53.362;5.216;2023-05-16T15:21:59;17.40;99.90
54272;DHT22;40184;53.362;5.216;2023-05-16T15:24:26;17.90;99.90
54272;DHT22;40184;53.362;5.216;2023-05-16T15:26:52;18.10;99.90
54272;DHT22;40184;53.362;5.216;2023-05-16T15:29:17;18.00;99.90
54272;DHT22;40184;53.362;5.216;2023-05-16T15:31:44;17.80;99.90
54272;DHT22;40184;53.362;5.216;2023-05-16T15:34:10;17.60;99.90
54272;DHT22;40184;53.362;5.216;2023-05-16T15:36:36;18.10;99.90
54272;DHT22;40184;53.362;5.216;2023-05-16T15:39:01;18.40;99.90
54272;DHT22;40184;53.362;5.216;2023-05-16T15:41:27;18.80;99.90
54272;DHT22;40184;53.362;5.216;2023-05-16T15:43:53;18.50;99.90
54272;DHT22;40184;53.362;5.216;2023-05-16T15:46:18;17.90;99.90
54272;DHT22;40184;53.362;5.216;2023-05-16T15:48:44;17.40;99.90
54272;DHT22;40184;53.362;5.216;2023-05-16T15:51:10;17.40;99.90
54272;DHT22;40184;53.362;5.216;2023-05-16T15:53:36;17.50;99.90
54272;DHT22;40184;53.362;5.216;2023-05-16T15:56:01;17.70;99.90